sensor_id;sensor_type;location;lat;lon;timestamp;P1;durP1;ratioP1;P2;durP2;ratioP2
21521;SDS011;10922;45.572;10.002;2023-02-01T00:02:00;27.23;;;17.05;;
21521;SDS011;10922;45.572;10.002;2023-02-01T00:04:26;24.58;;;15.98;;
21521;SDS011;10922;45.572;10.002;2023-02-01T00:06:53;24.60;;;16.70;;
21521;SDS011;10922;45.572;10.002;2023-02-01T00:09:19;24.63;;;16.25;;
21521;SDS011;10922;45.572;10.002;2023-02-01T00:11:45;22.97;;;14.80;;
21521;SDS011;10922;45.572;10.002;2023-02-01T00:14:10;24.50;;;15.53;;
21521;SDS011;10922;45.572;10.002;2023-02-01T00:16:36;22.70;;;16.08;;
21521;SDS011;10922;45.572;10.002;2023-02-01T00:19:03;25.20;;;15.97;;
21521;SDS011;10922;45.572;10.002;2023-02-01T00:21:34;23.87;;;15.87;;
21521;SDS011;10922;45.572;10.002;2023-02-01T00:24:00;22.67;;;15.13;;
21521;SDS011;10922;45.572;10.002;2023-02-01T00:26:36;22.65;;;15.75;;
21521;SDS011;10922;45.572;10.002;2023-02-01T00:29:09;24.17;;;14.75;;
21521;SDS011;10922;45.572;10.002;2023-02-01T00:31:37;22.67;;;14.75;;
21521;SDS011;10922;45.572;10.002;2023-02-01T00:34:04;21.92;;;13.85;;
21521;SDS011;10922;45.572;10.002;2023-02-01T00:36:30;19.27;;;13.73;;
21521;SDS011;10922;45.572;10.002;2023-02-01T00:38:56;19.52;;;12.15;;
21521;SDS011;10922;45.572;10.002;2023-02-01T00:41:22;18.43;;;12.53;;
21521;SDS011;10922;45.572;10.002;2023-02-01T00:43:50;19.33;;;12.33;;
21521;SDS011;10922;45.572;10.002;2023-02-01T00:46:16;16.75;;;11.63;;
21521;SDS011;10922;45.572;10.002;2023-02-01T00:48:43;16.65;;;11.65;;
21521;SDS011;10922;45.572;10.002;2023-02-01T00:51:10;18.17;;;11.80;;
21521;SDS011;10922;45.572;10.002;2023-02-01T00:53:38;17.20;;;11.50;;
21521;SDS011;10922;45.572;10.002;2023-02-01T00:56:04;16.48;;;10.75;;
21521;SDS011;10922;45.572;10.002;2023-02-01T00:58:31;17.90;;;12.02;;
21521;SDS011;10922;45.572;10.002;2023-02-01T01:01:00;18.27;;;12.43;;
21521;SDS011;10922;45.572;10.002;2023-02-01T01:03:50;20.63;;;12.32;;
21521;SDS011;10922;45.572;10.002;2023-02-01T01:06:21;20.13;;;12.30;;
21521;SDS011;10922;45.572;10.002;2023-02-01T01:08:53;17.30;;;11.82;;
21521;SDS011;10922;45.572;10.002;2023-02-01T01:11:21;16.17;;;11.77;;
21521;SDS011;10922;45.572;10.002;2023-02-01T01:13:49;17.25;;;11.80;;
21521;SDS011;10922;45.572;10.002;2023-02-01T01:16:15;16.98;;;11.80;;
21521;SDS011;10922;45.572;10.002;2023-02-01T01:18:42;17.63;;;11.65;;
21521;SDS011;10922;45.572;10.002;2023-02-01T01:21:08;15.85;;;11.60;;
21521;SDS011;10922;45.572;10.002;2023-02-01T01:23:36;15.17;;;10.77;;
21521;SDS011;10922;45.572;10.002;2023-02-01T01:26:06;17.38;;;10.93;;
21521;SDS011;10922;45.572;10.002;2023-02-01T01:28:33;18.92;;;12.82;;
21521;SDS011;10922;45.572;10.002;2023-02-01T01:30:58;17.33;;;11.87;;
21521;SDS011;10922;45.572;10.002;2023-02-01T01:33:24;17.55;;;11.95;;
21521;SDS011;10922;45.572;10.002;2023-02-01T01:35:49;17.63;;;12.00;;
21521;SDS011;10922;45.572;10.002;2023-02-01T01:38:15;17.77;;;12.00;;
21521;SDS011;10922;45.572;10.002;2023-02-01T01:40:44;19.35;;;11.45;;
21521;SDS011;10922;45.572;10.002;2023-02-01T01:43:14;16.00;;;10.77;;
21521;SDS011;10922;45.572;10.002;2023-02-01T01:45:41;15.02;;;10.65;;
21521;SDS011;10922;45.572;10.002;2023-02-01T01:48:13;13.00;;;9.95;;
21521;SDS011;10922;45.572;10.002;2023-02-01T01:50:52;14.63;;;10.38;;
21521;SDS011;10922;45.572;10.002;2023-02-01T01:53:29;13.90;;;10.13;;
21521;SDS011;10922;45.572;10.002;2023-02-01T01:56:02;14.95;;;9.50;;
21521;SDS011;10922;45.572;10.002;2023-02-01T01:58:28;13.07;;;9.43;;
21521;SDS011;10922;45.572;10.002;2023-02-01T02:00:56;13.33;;;9.47;;
21521;SDS011;10922;45.572;10.002;2023-02-01T02:03:27;15.43;;;10.35;;
21521;SDS011;10922;45.572;10.002;2023-02-01T02:05:59;15.07;;;10.32;;
21521;SDS011;10922;45.572;10.002;2023-02-01T02:08:27;14.73;;;10.20;;
21521;SDS011;10922;45.572;10.002;2023-02-01T02:10:53;15.85;;;10.57;;
21521;SDS011;10922;45.572;10.002;2023-02-01T02:13:32;16.40;;;10.52;;
21521;SDS011;10922;45.572;10.002;2023-02-01T02:18:50;13.82;;;10.02;;
21521;SDS011;10922;45.572;10.002;2023-02-01T02:24:24;15.27;;;10.52;;
21521;SDS011;10922;45.572;10.002;2023-02-01T02:40:35;14.68;;;10.55;;
21521;SDS011;10922;45.572;10.002;2023-02-01T02:43:23;14.35;;;10.48;;
21521;SDS011;10922;45.572;10.002;2023-02-01T02:46:22;13.47;;;10.43;;
21521;SDS011;10922;45.572;10.002;2023-02-01T02:49:23;16.55;;;11.55;;
21521;SDS011;10922;45.572;10.002;2023-02-01T02:51:53;16.63;;;11.57;;
21521;SDS011;10922;45.572;10.002;2023-02-01T02:55:07;14.60;;;11.38;;
21521;SDS011;10922;45.572;10.002;2023-02-01T02:57:35;17.83;;;11.57;;
21521;SDS011;10922;45.572;10.002;2023-02-01T03:00:22;17.25;;;11.43;;
21521;SDS011;10922;45.572;10.002;2023-02-01T03:03:11;15.43;;;11.25;;
21521;SDS011;10922;45.572;10.002;2023-02-01T03:05:55;16.85;;;12.00;;
21521;SDS011;10922;45.572;10.002;2023-02-01T03:08:29;15.40;;;11.48;;
21521;SDS011;10922;45.572;10.002;2023-02-01T03:11:03;16.08;;;11.90;;
21521;SDS011;10922;45.572;10.002;2023-02-01T03:13:36;15.27;;;11.45;;
21521;SDS011;10922;45.572;10.002;2023-02-01T03:19:02;14.70;;;11.70;;
21521;SDS011;10922;45.572;10.002;2023-02-01T03:21:40;15.90;;;11.57;;
21521;SDS011;10922;45.572;10.002;2023-02-01T03:24:11;16.90;;;12.07;;
21521;SDS011;10922;45.572;10.002;2023-02-01T03:26:43;17.63;;;12.45;;
21521;SDS011;10922;45.572;10.002;2023-02-01T03:29:22;20.92;;;13.27;;
21521;SDS011;10922;45.572;10.002;2023-02-01T03:31:52;18.65;;;13.45;;
21521;SDS011;10922;45.572;10.002;2023-02-01T03:34:18;14.57;;;11.23;;
21521;SDS011;10922;45.572;10.002;2023-02-01T03:36:47;15.48;;;10.70;;
21521;SDS011;10922;45.572;10.002;2023-02-01T03:39:25;16.03;;;10.50;;
21521;SDS011;10922;45.572;10.002;2023-02-01T03:42:01;15.35;;;10.00;;
21521;SDS011;10922;45.572;10.002;2023-02-01T03:44:32;14.13;;;9.53;;
21521;SDS011;10922;45.572;10.002;2023-02-01T03:47:21;14.27;;;10.07;;
21521;SDS011;10922;45.572;10.002;2023-02-01T03:49:56;13.60;;;9.75;;
21521;SDS011;10922;45.572;10.002;2023-02-01T03:52:37;13.32;;;9.57;;
21521;SDS011;10922;45.572;10.002;2023-02-01T03:55:04;14.43;;;9.43;;
21521;SDS011;10922;45.572;10.002;2023-02-01T03:57:31;14.18;;;9.27;;
21521;SDS011;10922;45.572;10.002;2023-02-01T04:00:04;14.85;;;9.48;;
21521;SDS011;10922;45.572;10.002;2023-02-01T04:02:41;12.60;;;9.70;;
21521;SDS011;10922;45.572;10.002;2023-02-01T04:05:07;14.50;;;9.80;;
21521;SDS011;10922;45.572;10.002;2023-02-01T04:07:33;15.40;;;10.10;;
21521;SDS011;10922;45.572;10.002;2023-02-01T04:09:59;13.15;;;9.35;;
21521;SDS011;10922;45.572;10.002;2023-02-01T04:12:24;15.63;;;9.90;;
21521;SDS011;10922;45.572;10.002;2023-02-01T04:14:50;13.27;;;9.27;;
21521;SDS011;10922;45.572;10.002;2023-02-01T04:17:16;15.73;;;10.02;;
21521;SDS011;10922;45.572;10.002;2023-02-01T04:19:41;14.83;;;10.00;;
21521;SDS011;10922;45.572;10.002;2023-02-01T04:22:07;28.88;;;19.02;;
21521;SDS011;10922;45.572;10.002;2023-02-01T04:24:32;41.90;;;28.47;;
21521;SDS011;10922;45.572;10.002;2023-02-01T04:26:58;26.58;;;17.88;;
21521;SDS011;10922;45.572;10.002;2023-02-01T04:29:24;23.30;;;15.68;;
21521;SDS011;10922;45.572;10.002;2023-02-01T04:31:49;17.13;;;12.27;;
21521;SDS011;10922;45.572;10.002;2023-02-01T04:34:15;16.38;;;11.80;;
21521;SDS011;10922;45.572;10.002;2023-02-01T04:36:41;15.80;;;10.77;;
21521;SDS011;10922;45.572;10.002;2023-02-01T04:39:08;15.00;;;11.20;;
21521;SDS011;10922;45.572;10.002;2023-02-01T04:41:34;18.30;;;11.40;;
21521;SDS011;10922;45.572;10.002;2023-02-01T04:44:00;18.40;;;12.43;;
21521;SDS011;10922;45.572;10.002;2023-02-01T04:46:26;18.45;;;11.52;;
21521;SDS011;10922;45.572;10.002;2023-02-01T04:48:52;21.93;;;12.20;;
21521;SDS011;10922;45.572;10.002;2023-02-01T04:51:17;16.60;;;11.93;;
21521;SDS011;10922;45.572;10.002;2023-02-01T04:53:44;17.55;;;11.85;;
21521;SDS011;10922;45.572;10.002;2023-02-01T04:56:10;16.92;;;11.65;;
21521;SDS011;10922;45.572;10.002;2023-02-01T04:58:35;17.00;;;11.43;;
21521;SDS011;10922;45.572;10.002;2023-02-01T05:01:02;15.63;;;11.43;;
21521;SDS011;10922;45.572;10.002;2023-02-01T05:03:32;18.83;;;12.02;;
21521;SDS011;10922;45.572;10.002;2023-02-01T05:05:59;19.05;;;12.30;;
21521;SDS011;10922;45.572;10.002;2023-02-01T05:08:25;17.45;;;11.98;;
21521;SDS011;10922;45.572;10.002;2023-02-01T05:10:51;22.05;;;13.15;;
21521;SDS011;10922;45.572;10.002;2023-02-01T05:13:18;21.45;;;12.75;;
21521;SDS011;10922;45.572;10.002;2023-02-01T05:16:02;19.13;;;12.32;;
21521;SDS011;10922;45.572;10.002;2023-02-01T05:18:28;17.35;;;12.18;;
21521;SDS011;10922;45.572;10.002;2023-02-01T05:20:53;16.77;;;11.90;;
21521;SDS011;10922;45.572;10.002;2023-02-01T05:23:19;16.83;;;12.23;;
21521;SDS011;10922;45.572;10.002;2023-02-01T05:25:45;21.25;;;13.98;;
21521;SDS011;10922;45.572;10.002;2023-02-01T05:28:10;18.27;;;13.37;;
21521;SDS011;10922;45.572;10.002;2023-02-01T05:30:36;19.95;;;13.15;;
21521;SDS011;10922;45.572;10.002;2023-02-01T05:33:02;20.60;;;13.02;;
21521;SDS011;10922;45.572;10.002;2023-02-01T05:35:28;21.60;;;13.10;;
21521;SDS011;10922;45.572;10.002;2023-02-01T05:37:54;18.85;;;12.27;;
21521;SDS011;10922;45.572;10.002;2023-02-01T05:40:19;18.67;;;12.43;;
21521;SDS011;10922;45.572;10.002;2023-02-01T05:42:45;18.80;;;12.85;;
21521;SDS011;10922;45.572;10.002;2023-02-01T05:45:11;20.20;;;13.30;;
21521;SDS011;10922;45.572;10.002;2023-02-01T05:47:36;19.45;;;13.27;;
21521;SDS011;10922;45.572;10.002;2023-02-01T05:50:02;20.70;;;13.47;;
21521;SDS011;10922;45.572;10.002;2023-02-01T05:52:29;20.30;;;13.33;;
21521;SDS011;10922;45.572;10.002;2023-02-01T05:54:55;22.77;;;12.57;;
21521;SDS011;10922;45.572;10.002;2023-02-01T05:57:20;19.40;;;13.73;;
21521;SDS011;10922;45.572;10.002;2023-02-01T05:59:46;20.67;;;14.07;;
21521;SDS011;10922;45.572;10.002;2023-02-01T06:02:13;19.85;;;13.90;;
21521;SDS011;10922;45.572;10.002;2023-02-01T06:04:42;19.33;;;13.38;;
21521;SDS011;10922;45.572;10.002;2023-02-01T06:07:08;20.13;;;13.25;;
21521;SDS011;10922;45.572;10.002;2023-02-01T06:09:35;28.55;;;14.98;;
21521;SDS011;10922;45.572;10.002;2023-02-01T06:12:01;21.45;;;14.77;;
21521;SDS011;10922;45.572;10.002;2023-02-01T06:14:28;21.33;;;13.25;;
21521;SDS011;10922;45.572;10.002;2023-02-01T06:16:54;26.67;;;14.63;;
21521;SDS011;10922;45.572;10.002;2023-02-01T06:19:20;25.70;;;14.68;;
21521;SDS011;10922;45.572;10.002;2023-02-01T06:21:46;25.15;;;14.77;;
21521;SDS011;10922;45.572;10.002;2023-02-01T06:24:12;20.90;;;13.60;;
21521;SDS011;10922;45.572;10.002;2023-02-01T06:26:38;22.52;;;14.18;;
21521;SDS011;10922;45.572;10.002;2023-02-01T06:29:05;19.83;;;13.27;;
21521;SDS011;10922;45.572;10.002;2023-02-01T06:31:39;22.58;;;13.73;;
21521;SDS011;10922;45.572;10.002;2023-02-01T06:34:05;27.05;;;14.02;;
21521;SDS011;10922;45.572;10.002;2023-02-01T06:36:31;24.67;;;14.57;;
21521;SDS011;10922;45.572;10.002;2023-02-01T06:38:56;22.83;;;13.67;;
21521;SDS011;10922;45.572;10.002;2023-02-01T06:41:24;25.17;;;14.10;;
21521;SDS011;10922;45.572;10.002;2023-02-01T06:43:50;26.90;;;14.68;;
21521;SDS011;10922;45.572;10.002;2023-02-01T06:46:16;25.67;;;14.53;;
21521;SDS011;10922;45.572;10.002;2023-02-01T06:48:42;22.63;;;14.57;;
21521;SDS011;10922;45.572;10.002;2023-02-01T06:51:21;25.03;;;14.63;;
21521;SDS011;10922;45.572;10.002;2023-02-01T06:53:48;34.90;;;14.85;;
21521;SDS011;10922;45.572;10.002;2023-02-01T06:56:14;23.70;;;14.00;;
21521;SDS011;10922;45.572;10.002;2023-02-01T06:58:39;29.60;;;16.47;;
21521;SDS011;10922;45.572;10.002;2023-02-01T07:01:06;25.42;;;15.38;;
21521;SDS011;10922;45.572;10.002;2023-02-01T07:03:33;23.93;;;15.00;;
21521;SDS011;10922;45.572;10.002;2023-02-01T07:05:59;28.60;;;14.77;;
21521;SDS011;10922;45.572;10.002;2023-02-01T07:08:26;31.45;;;14.82;;
21521;SDS011;10922;45.572;10.002;2023-02-01T07:10:53;28.02;;;15.75;;
21521;SDS011;10922;45.572;10.002;2023-02-01T07:13:18;27.07;;;14.73;;
21521;SDS011;10922;45.572;10.002;2023-02-01T07:15:44;30.48;;;14.90;;
21521;SDS011;10922;45.572;10.002;2023-02-01T07:18:12;24.98;;;15.07;;
21521;SDS011;10922;45.572;10.002;2023-02-01T07:20:39;30.37;;;14.53;;
21521;SDS011;10922;45.572;10.002;2023-02-01T07:23:05;27.67;;;14.57;;
21521;SDS011;10922;45.572;10.002;2023-02-01T07:25:31;30.58;;;15.73;;
21521;SDS011;10922;45.572;10.002;2023-02-01T07:27:57;25.52;;;14.35;;
21521;SDS011;10922;45.572;10.002;2023-02-01T07:30:22;26.00;;;14.53;;
21521;SDS011;10922;45.572;10.002;2023-02-01T07:32:48;26.40;;;15.43;;
21521;SDS011;10922;45.572;10.002;2023-02-01T07:35:14;24.98;;;14.18;;
21521;SDS011;10922;45.572;10.002;2023-02-01T07:37:40;25.77;;;14.90;;
21521;SDS011;10922;45.572;10.002;2023-02-01T07:40:05;26.33;;;15.00;;
21521;SDS011;10922;45.572;10.002;2023-02-01T07:42:31;23.60;;;12.82;;
21521;SDS011;10922;45.572;10.002;2023-02-01T07:44:57;21.08;;;11.63;;
21521;SDS011;10922;45.572;10.002;2023-02-01T07:47:23;18.07;;;10.70;;
21521;SDS011;10922;45.572;10.002;2023-02-01T07:49:48;15.82;;;11.02;;
21521;SDS011;10922;45.572;10.002;2023-02-01T07:52:14;14.40;;;9.43;;
21521;SDS011;10922;45.572;10.002;2023-02-01T07:54:42;20.60;;;10.35;;
21521;SDS011;10922;45.572;10.002;2023-02-01T07:57:08;13.25;;;9.40;;
21521;SDS011;10922;45.572;10.002;2023-02-01T07:59:36;17.02;;;9.55;;
21521;SDS011;10922;45.572;10.002;2023-02-01T08:02:21;15.30;;;9.73;;
21521;SDS011;10922;45.572;10.002;2023-02-01T08:04:47;22.47;;;9.87;;
21521;SDS011;10922;45.572;10.002;2023-02-01T08:07:13;16.10;;;10.90;;
21521;SDS011;10922;45.572;10.002;2023-02-01T08:09:39;19.48;;;11.30;;
21521;SDS011;10922;45.572;10.002;2023-02-01T08:12:05;21.60;;;13.00;;
21521;SDS011;10922;45.572;10.002;2023-02-01T08:14:31;17.73;;;11.25;;
21521;SDS011;10922;45.572;10.002;2023-02-01T08:16:56;19.87;;;13.00;;
21521;SDS011;10922;45.572;10.002;2023-02-01T08:19:22;16.97;;;11.47;;
21521;SDS011;10922;45.572;10.002;2023-02-01T08:21:47;19.48;;;13.32;;
21521;SDS011;10922;45.572;10.002;2023-02-01T08:24:13;20.43;;;13.93;;
21521;SDS011;10922;45.572;10.002;2023-02-01T08:26:39;21.17;;;14.32;;
21521;SDS011;10922;45.572;10.002;2023-02-01T08:29:06;25.60;;;15.53;;
21521;SDS011;10922;45.572;10.002;2023-02-01T08:31:32;24.30;;;16.50;;
21521;SDS011;10922;45.572;10.002;2023-02-01T08:33:59;24.60;;;16.45;;
21521;SDS011;10922;45.572;10.002;2023-02-01T08:36:27;28.30;;;18.67;;
21521;SDS011;10922;45.572;10.002;2023-02-01T08:38:54;29.02;;;18.73;;
21521;SDS011;10922;45.572;10.002;2023-02-01T08:41:21;36.00;;;20.35;;
21521;SDS011;10922;45.572;10.002;2023-02-01T08:43:49;29.67;;;19.80;;
21521;SDS011;10922;45.572;10.002;2023-02-01T08:46:15;27.83;;;18.98;;
21521;SDS011;10922;45.572;10.002;2023-02-01T08:48:42;30.98;;;19.85;;
21521;SDS011;10922;45.572;10.002;2023-02-01T08:51:09;28.38;;;20.15;;
21521;SDS011;10922;45.572;10.002;2023-02-01T08:53:37;31.63;;;18.97;;
21521;SDS011;10922;45.572;10.002;2023-02-01T08:56:06;27.37;;;18.57;;
21521;SDS011;10922;45.572;10.002;2023-02-01T08:58:32;30.02;;;18.48;;
21521;SDS011;10922;45.572;10.002;2023-02-01T09:01:02;26.08;;;16.85;;
21521;SDS011;10922;45.572;10.002;2023-02-01T09:03:32;26.20;;;16.97;;
21521;SDS011;10922;45.572;10.002;2023-02-01T09:06:05;25.60;;;17.10;;
21521;SDS011;10922;45.572;10.002;2023-02-01T09:08:32;24.15;;;17.42;;
21521;SDS011;10922;45.572;10.002;2023-02-01T09:11:01;26.55;;;16.30;;
21521;SDS011;10922;45.572;10.002;2023-02-01T09:13:28;28.00;;;18.13;;
21521;SDS011;10922;45.572;10.002;2023-02-01T09:15:54;26.47;;;18.67;;
21521;SDS011;10922;45.572;10.002;2023-02-01T09:18:20;29.15;;;18.38;;
21521;SDS011;10922;45.572;10.002;2023-02-01T09:20:46;33.08;;;18.20;;
21521;SDS011;10922;45.572;10.002;2023-02-01T09:23:11;35.37;;;19.23;;
21521;SDS011;10922;45.572;10.002;2023-02-01T09:25:37;37.15;;;21.48;;
21521;SDS011;10922;45.572;10.002;2023-02-01T09:28:03;37.20;;;21.83;;
21521;SDS011;10922;45.572;10.002;2023-02-01T09:30:31;39.08;;;24.83;;
21521;SDS011;10922;45.572;10.002;2023-02-01T09:32:58;41.85;;;26.00;;
21521;SDS011;10922;45.572;10.002;2023-02-01T09:35:23;45.05;;;28.40;;
21521;SDS011;10922;45.572;10.002;2023-02-01T09:37:49;40.25;;;28.20;;
21521;SDS011;10922;45.572;10.002;2023-02-01T09:40:17;43.53;;;27.38;;
21521;SDS011;10922;45.572;10.002;2023-02-01T09:47:57;44.58;;;30.63;;
21521;SDS011;10922;45.572;10.002;2023-02-01T09:50:33;47.10;;;29.95;;
21521;SDS011;10922;45.572;10.002;2023-02-01T09:53:05;47.00;;;30.13;;
21521;SDS011;10922;45.572;10.002;2023-02-01T09:55:50;43.33;;;28.15;;
21521;SDS011;10922;45.572;10.002;2023-02-01T09:58:25;40.10;;;25.67;;
21521;SDS011;10922;45.572;10.002;2023-02-01T10:00:59;44.47;;;28.25;;
21521;SDS011;10922;45.572;10.002;2023-02-01T10:03:29;41.92;;;27.52;;
21521;SDS011;10922;45.572;10.002;2023-02-01T10:14:21;24.73;;;16.20;;
21521;SDS011;10922;45.572;10.002;2023-02-01T10:27:38;11.50;;;8.43;;
21521;SDS011;10922;45.572;10.002;2023-02-01T10:30:16;14.47;;;9.80;;
21521;SDS011;10922;45.572;10.002;2023-02-01T10:32:45;15.03;;;9.60;;
21521;SDS011;10922;45.572;10.002;2023-02-01T10:35:16;16.83;;;9.10;;
21521;SDS011;10922;45.572;10.002;2023-02-01T10:37:48;13.40;;;9.45;;
21521;SDS011;10922;45.572;10.002;2023-02-01T10:40:26;15.93;;;9.60;;
21521;SDS011;10922;45.572;10.002;2023-02-01T10:42:53;14.18;;;9.95;;
21521;SDS011;10922;45.572;10.002;2023-02-01T10:45:22;16.60;;;9.90;;
21521;SDS011;10922;45.572;10.002;2023-02-01T10:47:52;17.58;;;10.88;;
21521;SDS011;10922;45.572;10.002;2023-02-01T10:55:39;13.73;;;9.30;;
21521;SDS011;10922;45.572;10.002;2023-02-01T10:58:18;14.43;;;9.70;;
21521;SDS011;10922;45.572;10.002;2023-02-01T11:00:57;15.18;;;11.18;;
21521;SDS011;10922;45.572;10.002;2023-02-01T11:05:59;16.02;;;10.57;;
21521;SDS011;10922;45.572;10.002;2023-02-01T11:08:26;17.63;;;10.27;;
21521;SDS011;10922;45.572;10.002;2023-02-01T11:10:59;17.73;;;11.07;;
21521;SDS011;10922;45.572;10.002;2023-02-01T11:13:28;16.58;;;11.15;;
21521;SDS011;10922;45.572;10.002;2023-02-01T11:35:22;26.20;;;17.02;;
21521;SDS011;10922;45.572;10.002;2023-02-01T11:37:58;26.05;;;17.20;;
21521;SDS011;10922;45.572;10.002;2023-02-01T11:43:08;29.88;;;18.85;;
21521;SDS011;10922;45.572;10.002;2023-02-01T11:45:40;28.00;;;17.88;;
21521;SDS011;10922;45.572;10.002;2023-02-01T11:48:10;31.47;;;19.70;;
21521;SDS011;10922;45.572;10.002;2023-02-01T11:50:50;30.55;;;20.17;;
21521;SDS011;10922;45.572;10.002;2023-02-01T11:59:19;32.70;;;21.92;;
21521;SDS011;10922;45.572;10.002;2023-02-01T12:02:03;31.33;;;20.37;;
21521;SDS011;10922;45.572;10.002;2023-02-01T12:07:28;37.25;;;22.85;;
21521;SDS011;10922;45.572;10.002;2023-02-01T12:10:20;32.92;;;23.25;;
21521;SDS011;10922;45.572;10.002;2023-02-01T12:13:09;32.72;;;23.08;;
21521;SDS011;10922;45.572;10.002;2023-02-01T12:16:28;28.67;;;20.85;;
21521;SDS011;10922;45.572;10.002;2023-02-01T12:24:46;27.17;;;20.58;;
21521;SDS011;10922;45.572;10.002;2023-02-01T12:35:36;17.23;;;11.63;;
21521;SDS011;10922;45.572;10.002;2023-02-01T12:43:23;12.43;;;8.60;;
21521;SDS011;10922;45.572;10.002;2023-02-01T12:46:18;12.70;;;8.63;;
21521;SDS011;10922;45.572;10.002;2023-02-01T12:51:50;14.27;;;8.70;;
21521;SDS011;10922;45.572;10.002;2023-02-01T12:57:12;11.52;;;8.23;;
21521;SDS011;10922;45.572;10.002;2023-02-01T12:59:56;12.52;;;8.30;;
21521;SDS011;10922;45.572;10.002;2023-02-01T13:02:42;12.10;;;7.88;;
21521;SDS011;10922;45.572;10.002;2023-02-01T13:08:00;14.13;;;8.30;;
21521;SDS011;10922;45.572;10.002;2023-02-01T13:18:20;11.15;;;8.10;;
21521;SDS011;10922;45.572;10.002;2023-02-01T13:23:36;13.25;;;7.97;;
21521;SDS011;10922;45.572;10.002;2023-02-01T13:26:04;11.98;;;7.90;;
21521;SDS011;10922;45.572;10.002;2023-02-01T13:39:27;12.38;;;8.60;;
21521;SDS011;10922;45.572;10.002;2023-02-01T13:41:58;14.50;;;9.02;;
21521;SDS011;10922;45.572;10.002;2023-02-01T13:47:50;11.35;;;8.48;;
21521;SDS011;10922;45.572;10.002;2023-02-01T13:50:02;12.45;;;8.23;;
21521;SDS011;10922;45.572;10.002;2023-02-01T13:52:45;11.00;;;8.23;;
21521;SDS011;10922;45.572;10.002;2023-02-01T13:57:47;10.57;;;7.65;;
21521;SDS011;10922;45.572;10.002;2023-02-01T14:00:32;10.88;;;7.28;;
21521;SDS011;10922;45.572;10.002;2023-02-01T14:21:18;11.88;;;7.13;;
21521;SDS011;10922;45.572;10.002;2023-02-01T14:23:47;10.23;;;6.90;;
21521;SDS011;10922;45.572;10.002;2023-02-01T14:26:23;11.23;;;6.63;;
21521;SDS011;10922;45.572;10.002;2023-02-01T14:34:31;10.18;;;6.93;;
21521;SDS011;10922;45.572;10.002;2023-02-01T14:37:08;11.90;;;7.00;;
21521;SDS011;10922;45.572;10.002;2023-02-01T14:47:45;10.50;;;6.72;;
21521;SDS011;10922;45.572;10.002;2023-02-01T14:53:30;9.57;;;7.18;;
21521;SDS011;10922;45.572;10.002;2023-02-01T15:03:55;12.40;;;7.63;;
21521;SDS011;10922;45.572;10.002;2023-02-01T15:06:44;14.10;;;7.15;;
21521;SDS011;10922;45.572;10.002;2023-02-01T15:09:18;12.50;;;7.30;;
21521;SDS011;10922;45.572;10.002;2023-02-01T15:11:54;11.55;;;7.93;;
21521;SDS011;10922;45.572;10.002;2023-02-01T15:14:35;12.33;;;7.73;;
21521;SDS011;10922;45.572;10.002;2023-02-01T15:17:20;11.93;;;7.40;;
21521;SDS011;10922;45.572;10.002;2023-02-01T15:20:14;13.57;;;8.07;;
21521;SDS011;10922;45.572;10.002;2023-02-01T15:22:41;13.25;;;8.05;;
21521;SDS011;10922;45.572;10.002;2023-02-01T15:25:49;11.23;;;7.80;;
21521;SDS011;10922;45.572;10.002;2023-02-01T15:28:13;10.57;;;7.72;;
21521;SDS011;10922;45.572;10.002;2023-02-01T15:30:51;15.35;;;8.23;;
21521;SDS011;10922;45.572;10.002;2023-02-01T15:33:18;12.43;;;7.88;;
21521;SDS011;10922;45.572;10.002;2023-02-01T15:35:49;15.50;;;7.80;;
21521;SDS011;10922;45.572;10.002;2023-02-01T15:38:35;11.33;;;7.80;;
21521;SDS011;10922;45.572;10.002;2023-02-01T15:43:42;11.02;;;7.80;;
21521;SDS011;10922;45.572;10.002;2023-02-01T15:46:14;11.23;;;8.13;;
21521;SDS011;10922;45.572;10.002;2023-02-01T15:48:51;13.15;;;8.00;;
21521;SDS011;10922;45.572;10.002;2023-02-01T15:51:19;13.77;;;8.15;;
21521;SDS011;10922;45.572;10.002;2023-02-01T15:53:48;13.85;;;8.23;;
21521;SDS011;10922;45.572;10.002;2023-02-01T15:56:21;14.13;;;8.85;;
21521;SDS011;10922;45.572;10.002;2023-02-01T15:58:53;10.45;;;7.97;;
21521;SDS011;10922;45.572;10.002;2023-02-01T16:01:22;13.98;;;8.18;;
21521;SDS011;10922;45.572;10.002;2023-02-01T16:03:48;14.70;;;8.07;;
21521;SDS011;10922;45.572;10.002;2023-02-01T16:08:50;13.32;;;7.43;;
21521;SDS011;10922;45.572;10.002;2023-02-01T16:11:31;11.15;;;7.50;;
21521;SDS011;10922;45.572;10.002;2023-02-01T16:14:04;11.07;;;7.80;;
21521;SDS011;10922;45.572;10.002;2023-02-01T16:16:30;13.63;;;7.87;;
21521;SDS011;10922;45.572;10.002;2023-02-01T16:18:56;11.70;;;7.57;;
21521;SDS011;10922;45.572;10.002;2023-02-01T16:21:21;13.00;;;7.87;;
21521;SDS011;10922;45.572;10.002;2023-02-01T16:23:48;15.30;;;8.70;;
21521;SDS011;10922;45.572;10.002;2023-02-01T16:26:15;13.90;;;8.65;;
21521;SDS011;10922;45.572;10.002;2023-02-01T16:28:41;13.77;;;8.40;;
21521;SDS011;10922;45.572;10.002;2023-02-01T16:31:09;12.83;;;8.27;;
21521;SDS011;10922;45.572;10.002;2023-02-01T16:33:48;12.85;;;8.18;;
21521;SDS011;10922;45.572;10.002;2023-02-01T16:36:15;14.00;;;8.70;;
21521;SDS011;10922;45.572;10.002;2023-02-01T16:38:42;15.35;;;8.30;;
21521;SDS011;10922;45.572;10.002;2023-02-01T16:41:16;12.77;;;8.57;;
21521;SDS011;10922;45.572;10.002;2023-02-01T16:43:43;15.45;;;8.70;;
21521;SDS011;10922;45.572;10.002;2023-02-01T16:46:13;14.15;;;9.13;;
21521;SDS011;10922;45.572;10.002;2023-02-01T16:48:41;12.70;;;8.40;;
21521;SDS011;10922;45.572;10.002;2023-02-01T16:51:12;18.05;;;9.13;;
21521;SDS011;10922;45.572;10.002;2023-02-01T16:53:39;13.25;;;8.98;;
21521;SDS011;10922;45.572;10.002;2023-02-01T16:56:15;14.57;;;9.27;;
21521;SDS011;10922;45.572;10.002;2023-02-01T16:58:43;17.35;;;9.63;;
21521;SDS011;10922;45.572;10.002;2023-02-01T17:01:12;22.17;;;10.40;;
21521;SDS011;10922;45.572;10.002;2023-02-01T17:03:39;38.83;;;33.03;;
21521;SDS011;10922;45.572;10.002;2023-02-01T17:06:06;20.58;;;12.27;;
21521;SDS011;10922;45.572;10.002;2023-02-01T17:08:36;18.77;;;11.50;;
21521;SDS011;10922;45.572;10.002;2023-02-01T17:11:05;15.48;;;9.48;;
21521;SDS011;10922;45.572;10.002;2023-02-01T17:13:32;16.52;;;10.80;;
21521;SDS011;10922;45.572;10.002;2023-02-01T17:16:00;19.77;;;13.30;;
21521;SDS011;10922;45.572;10.002;2023-02-01T17:18:27;26.95;;;15.82;;
21521;SDS011;10922;45.572;10.002;2023-02-01T17:20:58;20.48;;;13.85;;
21521;SDS011;10922;45.572;10.002;2023-02-01T17:23:24;18.58;;;12.25;;
21521;SDS011;10922;45.572;10.002;2023-02-01T17:25:50;17.00;;;9.57;;
21521;SDS011;10922;45.572;10.002;2023-02-01T17:28:16;15.63;;;8.60;;
21521;SDS011;10922;45.572;10.002;2023-02-01T17:30:42;13.57;;;8.52;;
21521;SDS011;10922;45.572;10.002;2023-02-01T17:33:14;12.57;;;7.68;;
21521;SDS011;10922;45.572;10.002;2023-02-01T17:35:45;12.35;;;7.90;;
21521;SDS011;10922;45.572;10.002;2023-02-01T17:38:12;14.50;;;8.25;;
21521;SDS011;10922;45.572;10.002;2023-02-01T17:40:38;12.35;;;7.70;;